createdAt,value
2022-08-17T00:00:51.781Z,97062.59
2022-08-17T00:03:03.270Z,97062.06
2022-08-17T00:05:11.427Z,97061.06
2022-08-17T00:07:19.271Z,97059.91
2022-08-17T00:09:29.849Z,97059.06
2022-08-17T00:11:40.683Z,97059.03
2022-08-17T00:13:51.546Z,97059.22
2022-08-17T00:16:06.891Z,97062.41
2022-08-17T00:19:01.133Z,97051.66
2022-08-17T00:20:43.588Z,97051.47
2022-08-17T00:22:51.840Z,97050.31
2022-08-17T00:25:02.604Z,97050.63
2022-08-17T00:27:10.510Z,97050.31
2022-08-17T00:29:19.849Z,97058.22
2022-08-17T00:31:28.264Z,97042.88
2022-08-17T00:33:37.397Z,97049.59
2022-08-17T00:35:46.798Z,97036.31
2022-08-17T00:37:55.378Z,97042.38
2022-08-17T00:40:07.199Z,97040.53
2022-08-17T00:42:20.091Z,97038.31
2022-08-17T00:44:30.340Z,97035.59
2022-08-17T00:46:44.462Z,97034.09
2022-08-17T00:48:53.199Z,97031.94
2022-08-17T00:51:08.504Z,97036.28
2022-08-17T00:53:16.426Z,97031.88
2022-08-17T00:55:29.090Z,97031.66
2022-08-17T00:57:42.144Z,97035.19
2022-08-17T01:00:02.726Z,97033.34
2022-08-17T01:02:15.252Z,97040.91
2022-08-17T01:04:25.579Z,97037.19
2022-08-17T01:06:34.820Z,97038.00
2022-08-17T01:08:43.846Z,97042.03
2022-08-17T01:11:01.932Z,97041.69
2022-08-17T01:13:14.892Z,97039.47
2022-08-17T01:15:22.705Z,97042.28
2022-08-17T01:17:30.519Z,97031.09
2022-08-17T01:19:41.395Z,97028.41
2022-08-17T01:21:57.814Z,97030.75
2022-08-17T01:24:11.343Z,97033.44
2022-08-17T01:26:20.200Z,97029.72
2022-08-17T01:28:52.299Z,97026.06
2022-08-17T01:31:00.612Z,97022.84
2022-08-17T01:33:11.500Z,97025.72
2022-08-17T01:35:19.335Z,97032.28
2022-08-17T01:37:33.858Z,97031.09
2022-08-17T01:39:47.677Z,97030.13
2022-08-17T01:42:01.733Z,97028.63
2022-08-17T01:44:11.067Z,97027.44
2022-08-17T01:46:24.333Z,97031.09
2022-08-17T01:48:36.258Z,97032.72
2022-08-17T01:50:47.060Z,97037.28
2022-08-17T01:53:01.295Z,97042.28
2022-08-17T01:55:16.502Z,97044.13
2022-08-17T01:57:26.816Z,97043.06
2022-08-17T01:59:34.714Z,97045.41
2022-08-17T02:01:42.864Z,97049.63
2022-08-17T02:03:59.405Z,97033.69
2022-08-17T02:06:16.053Z,97042.59
2022-08-17T02:08:38.644Z,97043.06
2022-08-17T02:10:50.879Z,97036.34
2022-08-17T02:12:59.493Z,97042.50
2022-08-17T02:15:08.910Z,97045.00
2022-08-17T02:17:16.917Z,97039.28
2022-08-17T02:19:25.422Z,97040.75
2022-08-17T02:21:34.969Z,97045.97
2022-08-17T02:23:46.528Z,97043.44
2022-08-17T02:26:00.604Z,97052.50
2022-08-17T02:28:08.451Z,97050.50
2022-08-17T02:31:00.310Z,97051.91
2022-08-17T02:32:46.265Z,97059.75
2022-08-17T02:34:54.068Z,97055.69
2022-08-17T02:37:01.866Z,97049.28
2022-08-17T02:39:11.738Z,97045.66
2022-08-17T02:41:22.336Z,97046.31
2022-08-17T02:43:32.795Z,97053.00
2022-08-17T02:45:41.451Z,97049.69
2022-08-17T02:47:50.274Z,97043.94
2022-08-17T02:49:58.396Z,97045.13
2022-08-17T02:52:10.410Z,97050.66
2022-08-17T02:54:40.445Z,97052.34
2022-08-17T02:56:49.059Z,97054.31
2022-08-17T02:58:56.892Z,97055.56
2022-08-17T03:01:08.613Z,97051.81
2022-08-17T03:03:19.037Z,97049.59
2022-08-17T03:05:32.300Z,97054.13
2022-08-17T03:07:40.404Z,97059.50
2022-08-17T03:09:48.258Z,97055.13
2022-08-17T03:11:58.791Z,97051.78
2022-08-17T03:14:06.858Z,97055.97
2022-08-17T03:16:14.864Z,97058.81
2022-08-17T03:18:26.308Z,97053.59
2022-08-17T03:20:36.707Z,97052.88
2022-08-17T03:22:48.109Z,97059.84
2022-08-17T03:25:01.470Z,97060.19
2022-08-17T03:27:12.504Z,97056.72
2022-08-17T03:29:22.550Z,97060.28
2022-08-17T03:31:31.526Z,97062.53
2022-08-17T03:33:40.477Z,97066.13
2022-08-17T03:35:48.441Z,97057.88
2022-08-17T03:38:00.096Z,97059.19
2022-08-17T03:40:11.603Z,97068.28
2022-08-17T03:42:32.423Z,97069.44
2022-08-17T03:44:42.815Z,97067.06
2022-08-17T03:47:03.091Z,97071.41
2022-08-17T03:49:24.327Z,97074.75
2022-08-17T03:51:44.613Z,97070.81
2022-08-17T03:54:07.777Z,97080.34
2022-08-17T03:56:28.125Z,97081.00
2022-08-17T03:58:39.143Z,97087.81
2022-08-17T04:00:47.200Z,97092.44
2022-08-17T04:02:55.104Z,97099.28
2022-08-17T04:05:05.743Z,97100.13
2022-08-17T04:07:14.992Z,97098.44
2022-08-17T04:09:23.057Z,97109.00
2022-08-17T04:11:31.024Z,97111.19
2022-08-17T04:13:41.485Z,97115.47
2022-08-17T04:15:49.996Z,97113.97
2022-08-17T04:17:58.588Z,97108.72
2022-08-17T04:20:08.124Z,97102.59
2022-08-17T04:22:31.024Z,97112.03
2022-08-17T04:24:41.791Z,97108.13
2022-08-17T04:26:52.263Z,97101.06
2022-08-17T04:29:04.730Z,97111.34
2022-08-17T04:31:13.474Z,97111.41
2022-08-17T04:33:24.726Z,97106.38
2022-08-17T04:35:36.169Z,97111.50
2022-08-17T04:37:44.151Z,97128.38
2022-08-17T04:40:12.105Z,97125.66
2022-08-17T04:42:17.366Z,97126.31
2022-08-17T04:44:37.586Z,97116.56
2022-08-17T04:46:45.844Z,97123.59
2022-08-17T04:48:55.612Z,97137.34
2022-08-17T04:51:03.922Z,97136.41
2022-08-17T04:53:12.360Z,97138.19
2022-08-17T04:55:20.232Z,97133.81
2022-08-17T04:57:28.154Z,97142.09
2022-08-17T04:59:38.624Z,97139.72
2022-08-17T05:01:48.582Z,97139.41
2022-08-17T05:03:59.137Z,97142.97
2022-08-17T05:06:07.646Z,97153.56
2022-08-17T05:08:15.449Z,97165.22
2022-08-17T05:10:23.356Z,97162.13
2022-08-17T05:12:31.254Z,97160.63
2022-08-17T05:14:42.291Z,97164.31
2022-08-17T05:16:53.291Z,97151.78
2022-08-17T05:19:02.724Z,97159.66
2022-08-17T05:21:11.635Z,97148.75
2022-08-17T05:23:22.088Z,97147.16
2022-08-17T05:25:34.564Z,97140.47
2022-08-17T05:27:45.387Z,97135.09
2022-08-17T05:29:56.768Z,97135.69
2022-08-17T05:32:39.535Z,97136.19
2022-08-17T05:34:39.766Z,97137.97
2022-08-17T05:36:48.010Z,97141.06
2022-08-17T05:38:55.736Z,97144.28
2022-08-17T05:41:08.933Z,97154.13
2022-08-17T05:43:19.483Z,97168.66
2022-08-17T05:45:54.841Z,97176.16
2022-08-17T05:47:58.016Z,97182.88
2022-08-17T05:50:09.872Z,97179.56
2022-08-17T05:52:29.337Z,97210.97
2022-08-17T05:54:55.879Z,97229.69
2022-08-17T05:57:20.983Z,97232.88
2022-08-17T05:59:37.991Z,97239.19
2022-08-17T06:02:02.891Z,97250.72
2022-08-17T06:04:23.075Z,97240.69
2022-08-17T06:06:44.835Z,97237.53
2022-08-17T06:08:59.648Z,97260.13
2022-08-17T06:11:22.792Z,97259.75
2022-08-17T06:13:56.304Z,97258.19
2022-08-17T06:16:32.868Z,97257.75
2022-08-17T06:18:47.305Z,97254.56
2022-08-17T06:20:59.402Z,97258.25
2022-08-17T06:23:12.356Z,97261.50
2022-08-17T06:25:29.430Z,97278.78
2022-08-17T06:27:41.676Z,97278.91
2022-08-17T06:29:59.849Z,97287.59
2022-08-17T06:32:12.179Z,97279.06
2022-08-17T06:34:24.986Z,97275.84
2022-08-17T06:36:50.459Z,97258.75
2022-08-17T06:39:10.478Z,97246.19
2022-08-17T06:41:25.395Z,97223.59
2022-08-17T06:43:59.552Z,97229.84
2022-08-17T06:46:12.710Z,97233.25
2022-08-17T06:48:27.294Z,97232.56
2022-08-17T06:50:42.154Z,97248.59
2022-08-17T06:52:57.058Z,97262.41
2022-08-17T06:55:18.784Z,97276.03
2022-08-17T06:57:31.295Z,97276.28
2022-08-17T06:59:55.742Z,97269.28
2022-08-17T07:02:08.310Z,97260.44
2022-08-17T07:04:19.126Z,97255.09
2022-08-17T07:06:37.935Z,97251.72
2022-08-17T07:08:56.660Z,97254.19
2022-08-17T07:11:09.682Z,97259.34
2022-08-17T07:13:32.358Z,97266.09
2022-08-17T07:15:45.151Z,97255.06
2022-08-17T07:17:53.350Z,97256.06
2022-08-17T07:20:11.413Z,97241.78
2022-08-17T07:22:30.481Z,97249.03
2022-08-17T07:25:02.093Z,97241.66
2022-08-17T07:27:14.500Z,97225.41
2022-08-17T07:29:23.946Z,97241.19
2022-08-17T07:31:36.255Z,97237.84
2022-08-17T07:34:03.079Z,97244.06
2022-08-17T07:36:30.193Z,97249.75
2022-08-17T07:38:59.936Z,97258.81
2022-08-17T07:41:11.072Z,97250.91
2022-08-17T07:43:29.713Z,97245.41
2022-08-17T07:46:04.085Z,97246.19
2022-08-17T07:48:23.876Z,97246.97
2022-08-17T07:50:32.888Z,97253.38
2022-08-17T07:52:50.716Z,97248.50
2022-08-17T07:55:32.927Z,97256.28
2022-08-17T07:57:41.018Z,97257.44
2022-08-17T08:00:22.269Z,97241.13
2022-08-17T08:02:42.485Z,97239.47
2022-08-17T08:05:02.377Z,97243.75
2022-08-17T08:07:15.334Z,97242.09
2022-08-17T08:09:44.845Z,97232.78
2022-08-17T08:11:55.874Z,97228.72
2022-08-17T08:14:29.479Z,97231.47
2022-08-17T08:16:37.642Z,97231.75
2022-08-17T08:18:55.982Z,97228.41
2022-08-17T08:21:09.634Z,97231.59
2022-08-17T08:23:29.616Z,97224.53
2022-08-17T08:25:53.599Z,97239.94
2022-08-17T08:28:17.256Z,97242.16
2022-08-17T08:30:26.099Z,97233.97
2022-08-17T08:32:57.221Z,97242.91
2022-08-17T08:35:09.220Z,97235.41
2022-08-17T08:37:33.201Z,97242.13
2022-08-17T08:39:52.157Z,97241.31
2022-08-17T08:42:07.729Z,97246.34
2022-08-17T08:45:01.258Z,97249.91
2022-08-17T08:47:09.944Z,97263.19
2022-08-17T08:50:04.735Z,97266.34
2022-08-17T08:52:22.819Z,97267.38
2022-08-17T08:54:41.900Z,97268.03
2022-08-17T08:57:22.849Z,97265.63
2022-08-17T08:59:42.041Z,97265.19
2022-08-17T09:02:14.247Z,97261.00
2022-08-17T09:05:10.714Z,97249.09
2022-08-17T09:07:16.259Z,97247.69
2022-08-17T09:09:40.155Z,97236.34
2022-08-17T09:12:02.203Z,97241.41
2022-08-17T09:14:28.825Z,97236.38
2022-08-17T09:16:45.540Z,97245.81
2022-08-17T09:19:00.795Z,97244.97
2022-08-17T09:21:23.068Z,97238.91
2022-08-17T09:23:36.777Z,97246.63
2022-08-17T09:25:51.835Z,97256.31
2022-08-17T09:28:06.555Z,97269.72
2022-08-17T09:30:19.985Z,97282.69
2022-08-17T09:32:39.524Z,97276.84
2022-08-17T09:34:54.883Z,97268.88
2022-08-17T09:37:23.659Z,97266.38
2022-08-17T09:39:39.243Z,97272.66
2022-08-17T09:41:51.855Z,97277.66
2022-08-17T09:44:23.446Z,97290.22
2022-08-17T09:46:38.855Z,97294.13
2022-08-17T09:48:57.479Z,97285.50
2022-08-17T09:51:16.966Z,97287.09
2022-08-17T09:53:33.292Z,97286.75
2022-08-17T09:56:01.588Z,97276.78
2022-08-17T09:58:22.595Z,97277.88
2022-08-17T10:00:40.492Z,97272.03
2022-08-17T10:03:16.462Z,97269.91
2022-08-17T10:05:37.622Z,97289.78
2022-08-17T10:07:56.127Z,97275.91
2022-08-17T10:10:14.245Z,97292.91
2022-08-17T10:12:33.173Z,97298.13
2022-08-17T10:14:53.564Z,97301.47
2022-08-17T10:17:10.027Z,97306.47
2022-08-17T10:19:25.783Z,97311.19
2022-08-17T10:22:00.794Z,97312.03
2022-08-17T10:24:28.271Z,97294.81
2022-08-17T10:26:56.674Z,97310.56
2022-08-17T10:29:14.647Z,97316.22
2022-08-17T10:31:36.261Z,97320.63
2022-08-17T10:33:58.251Z,97326.72
2022-08-17T10:36:14.725Z,97321.44
2022-08-17T10:38:41.412Z,97326.31
2022-08-17T10:40:57.430Z,97330.97
2022-08-17T10:43:20.165Z,97334.75
2022-08-17T10:45:34.700Z,97330.53
2022-08-17T10:48:05.025Z,97333.03
2022-08-17T10:50:58.866Z,97345.00
2022-08-17T10:53:07.025Z,97346.47
2022-08-17T10:55:22.321Z,97357.81
2022-08-17T10:57:43.904Z,97352.78
2022-08-17T10:59:55.411Z,97351.72
2022-08-17T11:02:22.629Z,97363.03
2022-08-17T11:04:47.887Z,97368.50
2022-08-17T11:07:10.535Z,97363.16
2022-08-17T11:09:43.224Z,97354.13
2022-08-17T11:12:15.581Z,97347.31
2022-08-17T11:14:37.761Z,97348.56
2022-08-17T11:16:54.456Z,97351.81
2022-08-17T11:19:28.354Z,97361.72
2022-08-17T11:21:59.267Z,97373.25
2022-08-17T11:24:17.719Z,97372.00
2022-08-17T11:26:30.675Z,97364.75
2022-08-17T11:28:55.214Z,97357.81
2022-08-17T11:31:11.527Z,97366.81
2022-08-17T11:33:59.043Z,97369.91
2022-08-17T11:36:23.463Z,97376.38
2022-08-17T11:38:50.386Z,97377.63
2022-08-17T11:41:22.446Z,97369.19
2022-08-17T11:44:02.091Z,97370.22
2022-08-17T11:46:51.702Z,97373.47
2022-08-17T11:49:30.730Z,97364.31
2022-08-17T11:51:59.531Z,97369.22
2022-08-17T11:54:32.214Z,97371.66
2022-08-17T11:56:45.164Z,97368.91
2022-08-17T11:58:53.273Z,97370.47
2022-08-17T12:01:02.390Z,97364.38
2022-08-17T12:03:54.328Z,97364.09
2022-08-17T12:06:07.237Z,97372.00
2022-08-17T12:08:21.583Z,97364.16
2022-08-17T12:10:34.411Z,97358.19
2022-08-17T12:12:44.983Z,97358.13
2022-08-17T12:15:12.897Z,97355.44
2022-08-17T12:17:41.244Z,97338.72
2022-08-17T12:19:53.402Z,97345.53
2022-08-17T12:22:13.387Z,97354.66
2022-08-17T12:24:40.189Z,97352.09
2022-08-17T12:26:58.293Z,97347.09
2022-08-17T12:29:17.888Z,97347.31
2022-08-17T12:31:47.509Z,97334.22
2022-08-17T12:33:58.650Z,97330.31
2022-08-17T12:36:12.822Z,97320.59
2022-08-17T12:38:31.929Z,97331.56
2022-08-17T12:40:42.034Z,97331.53
2022-08-17T12:43:04.647Z,97329.94
2022-08-17T12:45:36.733Z,97328.66
2022-08-17T12:47:44.784Z,97327.53
2022-08-17T12:49:54.321Z,97320.16
2022-08-17T12:52:14.114Z,97319.63
2022-08-17T12:54:43.534Z,97320.25
2022-08-17T12:56:52.458Z,97311.31
2022-08-17T12:59:02.342Z,97295.16
2022-08-17T13:01:17.189Z,97300.47
2022-08-17T13:03:36.380Z,97283.09
2022-08-17T13:06:01.189Z,97277.75
2022-08-17T13:08:23.852Z,97271.72
2022-08-17T13:10:34.389Z,97272.16
2022-08-17T13:12:43.008Z,97276.09
2022-08-17T13:14:51.050Z,97257.28
2022-08-17T13:17:02.495Z,97271.88
2022-08-17T13:19:13.028Z,97271.09
2022-08-17T13:21:30.748Z,97267.00
2022-08-17T13:23:48.803Z,97263.56
2022-08-17T13:26:09.494Z,97261.16
2022-08-17T13:28:35.772Z,97262.00
2022-08-17T13:30:44.485Z,97255.97
2022-08-17T13:32:54.224Z,97255.66
2022-08-17T13:35:15.535Z,97256.75
2022-08-17T13:37:37.679Z,97257.59
2022-08-17T13:39:53.376Z,97263.06
2022-08-17T13:42:01.274Z,97260.50
2022-08-17T13:44:34.640Z,97256.91
2022-08-17T13:46:43.684Z,97253.19
2022-08-17T13:49:05.487Z,97259.88
2022-08-17T13:51:45.992Z,97256.78
2022-08-17T13:54:27.616Z,97252.91
2022-08-17T13:57:08.001Z,97246.72
2022-08-17T13:59:18.863Z,97241.91
2022-08-17T14:01:51.056Z,97247.78
2022-08-17T14:04:04.025Z,97247.69
2022-08-17T14:06:12.646Z,97248.63
2022-08-17T14:08:31.641Z,97232.88
2022-08-17T14:10:39.702Z,97234.34
2022-08-17T14:12:52.876Z,97225.41
2022-08-17T14:15:01.691Z,97214.72
2022-08-17T14:17:09.948Z,97220.31
2022-08-17T14:19:19.518Z,97206.38
2022-08-17T14:21:29.228Z,97203.34
2022-08-17T14:23:38.557Z,97203.72
2022-08-17T14:25:48.617Z,97190.81
2022-08-17T14:28:01.829Z,97186.97
2022-08-17T14:30:11.086Z,97180.41
2022-08-17T14:32:24.389Z,97196.84
2022-08-17T14:34:32.794Z,97199.91
2022-08-17T14:36:45.461Z,97197.50
2022-08-17T14:38:56.578Z,97196.59
2022-08-17T14:41:05.705Z,97203.16
2022-08-17T14:43:16.259Z,97188.41
2022-08-17T14:45:31.683Z,97199.09
2022-08-17T14:47:42.560Z,97194.81
2022-08-17T14:49:51.222Z,97195.31
2022-08-17T14:51:59.128Z,97196.31
2022-08-17T14:54:07.436Z,97200.22
2022-08-17T14:56:15.742Z,97201.47
2022-08-17T14:58:26.298Z,97202.44
2022-08-17T15:00:34.399Z,97193.91
2022-08-17T15:02:51.048Z,97196.81
2022-08-17T15:05:03.947Z,97200.63
2022-08-17T15:07:12.185Z,97191.63
2022-08-17T15:09:20.204Z,97195.19
2022-08-17T15:11:30.251Z,97191.09
2022-08-17T15:13:53.060Z,97200.75
2022-08-17T15:16:02.610Z,97198.25
2022-08-17T15:18:13.769Z,97202.91
2022-08-17T15:20:25.737Z,97208.06
2022-08-17T15:22:34.244Z,97196.03
2022-08-17T15:24:42.224Z,97196.09
2022-08-17T15:26:52.338Z,97196.13
2022-08-17T15:29:02.932Z,97192.53
2022-08-17T15:31:10.874Z,97185.84
2022-08-17T15:33:20.572Z,97184.72
2022-08-17T15:35:31.164Z,97183.34
2022-08-17T15:37:38.985Z,97182.56
2022-08-17T15:39:46.993Z,97182.56
2022-08-17T15:41:59.328Z,97185.94
2022-08-17T15:44:10.048Z,97184.41
2022-08-17T15:46:21.810Z,97178.47
2022-08-17T15:48:41.628Z,97176.22
2022-08-17T15:50:49.923Z,97177.78
2022-08-17T15:53:04.907Z,97175.97
2022-08-17T15:55:16.600Z,97172.63
2022-08-17T15:57:26.591Z,97173.63
2022-08-17T15:59:45.219Z,97171.94
2022-08-17T16:03:14.822Z,97163.50
2022-08-17T16:04:30.085Z,97159.41
2022-08-17T16:06:39.040Z,97153.69
2022-08-17T16:08:47.451Z,97148.94
2022-08-17T16:10:56.608Z,97153.88
2022-08-17T16:13:04.455Z,97157.88
2022-08-17T16:15:16.341Z,97153.56
2022-08-17T16:17:38.784Z,97139.06
2022-08-17T16:19:48.524Z,97143.25
2022-08-17T16:21:56.352Z,97142.53
2022-08-17T16:24:13.190Z,97138.31
2022-08-17T16:26:23.004Z,97135.56
2022-08-17T16:28:36.346Z,97132.44
2022-08-17T16:30:47.684Z,97136.31
2022-08-17T16:32:57.238Z,97130.22
2022-08-17T16:35:06.570Z,97138.00
2022-08-17T16:37:14.590Z,97133.19
2022-08-17T16:39:22.482Z,97124.34
2022-08-17T16:41:47.484Z,97121.03
2022-08-17T16:43:59.395Z,97121.28
2022-08-17T16:46:09.990Z,97121.34
2022-08-17T16:48:20.146Z,97122.81
2022-08-17T16:50:29.611Z,97122.03
2022-08-17T16:52:38.388Z,97127.94
2022-08-17T16:54:48.747Z,97127.41
2022-08-17T16:56:58.935Z,97126.84
2022-08-17T16:59:39.414Z,97120.00
2022-08-17T17:01:44.929Z,97125.94
2022-08-17T17:03:58.373Z,97125.78
2022-08-17T17:06:18.641Z,97118.91
2022-08-17T17:08:32.870Z,97106.31
2022-08-17T17:10:43.372Z,97112.84
2022-08-17T17:13:02.164Z,97112.06
2022-08-17T17:15:16.570Z,97126.34
2022-08-17T17:17:33.369Z,97124.94
2022-08-17T17:19:48.350Z,97126.28
2022-08-17T17:22:05.022Z,97125.84
2022-08-17T17:24:19.474Z,97128.19
2022-08-17T17:26:46.893Z,97126.72
2022-08-17T17:29:08.069Z,97127.16
2022-08-17T17:31:18.407Z,97127.81
2022-08-17T17:33:34.879Z,97119.44
2022-08-17T17:35:53.121Z,97120.94
2022-08-17T17:38:06.996Z,97120.06
2022-08-17T17:40:24.373Z,97112.97
2022-08-17T17:42:36.170Z,97108.59
2022-08-17T17:44:47.795Z,97103.75
2022-08-17T17:47:04.906Z,97097.88
2022-08-17T17:49:16.386Z,97092.00
2022-08-17T17:52:01.946Z,97104.16
2022-08-17T17:54:04.613Z,97099.13
2022-08-17T17:56:39.838Z,97097.03
2022-08-17T17:58:58.214Z,97093.03
2022-08-17T18:01:40.123Z,97090.09
2022-08-17T18:04:02.018Z,97088.22
2022-08-17T18:06:33.559Z,97084.22
2022-08-17T18:09:06.407Z,97092.53
2022-08-17T18:11:35.000Z,97091.84
2022-08-17T18:14:01.065Z,97087.25
2022-08-17T18:16:15.231Z,97092.00
2022-08-17T18:18:38.012Z,97100.75
2022-08-17T18:20:54.024Z,97097.78
2022-08-17T18:23:06.787Z,97093.19
2022-08-17T18:25:44.609Z,97083.75
2022-08-17T18:27:54.403Z,97083.34
2022-08-17T18:30:09.068Z,97091.38
2022-08-17T18:32:31.584Z,97085.69
2022-08-17T18:34:48.597Z,97088.31
2022-08-17T18:36:56.829Z,97084.91
2022-08-17T18:39:21.143Z,97094.28
2022-08-17T18:41:30.853Z,97091.94
2022-08-17T18:43:53.152Z,97091.06
2022-08-17T18:46:28.575Z,97092.72
2022-08-17T18:48:52.839Z,97094.97
2022-08-17T18:51:08.837Z,97088.28
2022-08-17T18:53:33.503Z,97090.91
2022-08-17T18:55:44.986Z,97094.88
2022-08-17T18:57:55.501Z,97100.03
2022-08-17T19:00:04.156Z,97091.19
2022-08-17T19:05:13.408Z,97105.25
2022-08-17T19:07:36.365Z,97110.63
2022-08-17T19:09:49.753Z,97117.00
2022-08-17T19:12:21.621Z,97127.81
2022-08-17T19:14:33.922Z,97134.47
2022-08-17T19:16:52.104Z,97136.91
2022-08-17T19:19:04.876Z,97138.31
2022-08-17T19:21:16.487Z,97137.84
2022-08-17T19:23:29.983Z,97128.03
2022-08-17T19:25:43.870Z,97139.00
2022-08-17T19:28:00.088Z,97146.94
2022-08-17T19:30:14.728Z,97136.69
2022-08-17T19:32:28.645Z,97141.44
2022-08-17T19:34:42.037Z,97144.03
2022-08-17T19:37:02.482Z,97142.84
2022-08-17T19:39:19.270Z,97138.91
2022-08-17T19:41:33.317Z,97129.75
2022-08-17T19:44:01.153Z,97123.28
2022-08-17T19:46:18.661Z,97109.44
2022-08-17T19:48:42.767Z,97117.31
2022-08-17T19:50:59.336Z,97119.38
2022-08-17T19:53:17.694Z,97119.84
2022-08-17T19:55:37.254Z,97116.88
2022-08-17T19:57:56.535Z,97115.34
2022-08-17T20:00:13.464Z,97117.69
2022-08-17T20:02:38.473Z,97111.88
2022-08-17T20:04:51.276Z,97111.50
2022-08-17T20:07:06.216Z,97103.19
2022-08-17T20:09:22.902Z,97104.44
2022-08-17T20:11:36.987Z,97115.06
2022-08-17T20:13:49.625Z,97118.34
2022-08-17T20:16:00.128Z,97120.63
2022-08-17T20:18:15.966Z,97119.69
2022-08-17T20:20:32.395Z,97129.88
2022-08-17T20:22:52.451Z,97131.38
2022-08-17T20:25:07.675Z,97124.66
2022-08-17T20:27:19.359Z,97126.44
2022-08-17T20:29:39.677Z,97122.78
2022-08-17T20:31:54.685Z,97120.47
2022-08-17T20:34:39.875Z,97113.34
2022-08-17T20:37:02.515Z,97118.88
2022-08-17T20:39:36.236Z,97119.59
2022-08-17T20:42:07.839Z,97127.41
2022-08-17T20:44:35.093Z,97113.22
2022-08-17T20:46:57.980Z,97123.88
2022-08-17T20:49:22.165Z,97130.47
2022-08-17T20:51:34.862Z,97131.72
2022-08-17T20:54:09.287Z,97141.66
2022-08-17T20:56:57.682Z,97145.78
2022-08-17T20:59:06.814Z,97147.06
2022-08-17T21:01:20.327Z,97161.94
2022-08-17T21:03:51.781Z,97159.06
2022-08-17T21:06:11.102Z,97170.34
2022-08-17T21:08:32.479Z,97167.78
2022-08-17T21:10:41.223Z,97171.34
2022-08-17T21:12:55.934Z,97171.34
2022-08-17T21:15:10.807Z,97168.44
2022-08-17T21:17:39.620Z,97172.81
2022-08-17T21:20:11.598Z,97170.59
2022-08-17T21:22:31.352Z,97173.94
2022-08-17T21:24:54.138Z,97187.88
2022-08-17T21:27:10.419Z,97187.66
2022-08-17T21:29:30.926Z,97183.72
2022-08-17T21:31:46.254Z,97179.84
2022-08-17T21:34:25.522Z,97186.94
2022-08-17T21:36:51.097Z,97188.78
2022-08-17T21:39:08.859Z,97195.69
2022-08-17T21:41:22.596Z,97203.25
2022-08-17T21:43:35.315Z,97217.28
2022-08-17T21:45:44.530Z,97234.38
2022-08-17T21:47:55.052Z,97242.97
2022-08-17T21:50:20.118Z,97243.53
2022-08-17T21:52:31.312Z,97253.41
2022-08-17T21:54:42.758Z,97252.91
2022-08-17T21:56:51.481Z,97257.47
2022-08-17T21:59:03.694Z,97274.25
2022-08-17T22:01:23.002Z,97271.75
2022-08-17T22:03:34.575Z,97284.38
2022-08-17T22:05:42.774Z,97295.25
2022-08-17T22:08:04.081Z,97312.31
2022-08-17T22:10:31.154Z,97317.00
2022-08-17T22:12:39.007Z,97319.09
2022-08-17T22:15:00.425Z,97325.03
2022-08-17T22:17:10.639Z,97331.44
2022-08-17T22:19:18.702Z,97337.22
2022-08-17T22:21:29.630Z,97342.69
2022-08-17T22:23:56.359Z,97353.31
2022-08-17T22:26:06.674Z,97357.41
2022-08-17T22:28:39.882Z,97364.34
2022-08-17T22:31:03.588Z,97369.91
2022-08-17T22:33:37.510Z,97370.41
2022-08-17T22:35:47.998Z,97386.66
2022-08-17T22:37:56.011Z,97390.16
2022-08-17T22:40:07.321Z,97401.16
2022-08-17T22:42:18.011Z,97400.25
2022-08-17T22:44:31.865Z,97418.31
2022-08-17T22:46:50.819Z,97424.38
2022-08-17T22:49:02.183Z,97424.56
2022-08-17T22:51:14.193Z,97425.03
2022-08-17T22:53:36.776Z,97427.38
2022-08-17T22:56:08.786Z,97430.91
2022-08-17T22:58:37.819Z,97443.88
2022-08-17T23:00:47.513Z,97435.75
2022-08-17T23:03:10.469Z,97441.38
2022-08-17T23:05:24.326Z,97441.44
2022-08-17T23:07:36.324Z,97427.91
2022-08-17T23:09:57.867Z,97428.22
2022-08-17T23:12:11.745Z,97431.81
2022-08-17T23:14:21.022Z,97421.34
2022-08-17T23:16:30.162Z,97428.38
2022-08-17T23:18:38.469Z,97426.78
2022-08-17T23:20:47.451Z,97415.00
2022-08-17T23:22:55.785Z,97412.41
2022-08-17T23:25:03.682Z,97406.81
2022-08-17T23:27:14.713Z,97412.13
2022-08-17T23:29:23.477Z,97404.75
2022-08-17T23:31:33.087Z,97408.47
2022-08-17T23:33:42.706Z,97406.25
2022-08-17T23:35:52.257Z,97396.63
2022-08-17T23:38:02.446Z,97400.38
2022-08-17T23:40:12.723Z,97399.84
2022-08-17T23:42:23.896Z,97400.00
2022-08-17T23:44:33.949Z,97412.38
2022-08-17T23:46:44.536Z,97406.47
2022-08-17T23:48:54.357Z,97407.13
2022-08-17T23:51:04.215Z,97402.47
2022-08-17T23:53:12.323Z,97409.00
2022-08-17T23:55:20.251Z,97401.06
2022-08-17T23:57:33.105Z,97393.13
2022-08-17T23:59:44.362Z,97381.47
